createdAt,value
2023-06-25T05:05:01.504Z,100904.50
2023-06-25T05:08:04.678Z,100941.84
2023-06-25T05:19:08.407Z,101003.75
2023-06-25T05:24:32.437Z,101012.25
2023-06-25T05:27:34.904Z,101033.91
2023-06-25T05:43:45.837Z,101032.91
2023-06-25T05:46:48.356Z,101036.69
2023-06-25T05:49:50.825Z,101027.53
2023-06-25T05:52:53.968Z,101027.63
2023-06-25T05:55:56.413Z,101032.09
2023-06-25T05:59:00.433Z,101030.66
2023-06-25T06:02:03.516Z,101037.56
2023-06-25T06:05:07.248Z,101036.47
2023-06-25T06:08:09.672Z,101042.72
2023-06-25T06:11:12.390Z,101048.03
2023-06-25T06:14:16.183Z,101044.72
2023-06-25T06:17:18.636Z,101047.50
2023-06-25T06:20:21.088Z,101052.44
2023-06-25T06:23:23.541Z,101058.88
2023-06-25T06:26:26.176Z,101060.06
2023-06-25T06:29:29.979Z,101059.81
2023-06-25T06:32:32.518Z,101059.53
2023-06-25T06:35:35.113Z,101056.03
2023-06-25T06:38:37.971Z,101058.88
2023-06-25T06:41:40.470Z,101054.31
2023-06-25T06:44:44.280Z,101056.56
2023-06-25T06:47:46.883Z,101068.16
2023-06-25T06:50:49.893Z,101063.16
2023-06-25T06:53:52.509Z,101066.94
2023-06-25T06:56:54.989Z,101057.59
2023-06-25T06:59:58.967Z,101058.28
2023-06-25T07:03:01.639Z,101057.53
2023-06-25T07:06:04.172Z,101058.09
2023-06-25T07:09:07.179Z,101055.19
2023-06-25T07:12:10.012Z,101052.28
2023-06-25T07:15:13.808Z,101047.19
2023-06-25T07:18:16.289Z,101048.22
2023-06-25T07:21:18.996Z,101045.34
2023-06-25T07:24:21.589Z,101052.59
2023-06-25T07:27:24.073Z,101046.38
2023-06-25T07:30:27.826Z,101054.84
2023-06-25T07:33:30.310Z,101050.91
2023-06-25T07:36:34.169Z,101052.59
2023-06-25T07:39:36.729Z,101054.50
2023-06-25T07:42:39.160Z,101056.78
2023-06-25T07:45:43.368Z,101055.03
2023-06-25T07:48:45.998Z,101047.47
2023-06-25T07:51:51.364Z,101054.00
2023-06-25T07:54:55.022Z,101035.56
2023-06-25T07:57:57.826Z,101045.91
2023-06-25T08:01:02.249Z,101043.81
2023-06-25T08:04:05.626Z,101046.31
2023-06-25T08:07:08.621Z,101052.22
2023-06-25T08:10:12.246Z,101047.56
2023-06-25T08:13:16.470Z,101045.81
2023-06-25T08:16:21.318Z,101053.59
2023-06-25T08:19:24.512Z,101061.94
2023-06-25T08:22:27.819Z,101054.16
2023-06-25T08:25:32.359Z,101056.19
2023-06-25T08:28:34.826Z,101058.22
2023-06-25T08:31:38.958Z,101059.03
2023-06-25T08:34:42.197Z,101057.13
2023-06-25T08:37:44.674Z,101049.34
2023-06-25T08:40:48.253Z,101052.56
2023-06-25T08:43:50.787Z,101052.69
2023-06-25T08:46:56.716Z,101052.22
2023-06-25T08:49:59.370Z,101057.78
2023-06-25T08:53:01.908Z,101053.91
2023-06-25T08:56:07.109Z,101050.72
2023-06-25T08:59:09.609Z,101059.34
2023-06-25T09:02:13.552Z,101051.66
2023-06-25T09:05:25.711Z,101059.09
2023-06-25T09:08:29.948Z,101056.28
2023-06-25T09:11:33.167Z,101058.88
2023-06-25T09:14:38.698Z,101050.66
2023-06-25T09:17:43.470Z,101050.47
2023-06-25T09:20:52.866Z,101042.63
2023-06-25T09:23:58.094Z,101045.41
2023-06-25T09:27:00.629Z,101041.00
2023-06-25T09:30:03.443Z,101039.78
2023-06-25T09:33:08.033Z,101043.88
2023-06-25T09:36:31.124Z,101042.22
2023-06-25T09:39:36.258Z,101034.25
2023-06-25T09:42:41.227Z,101042.81
2023-06-25T09:45:45.947Z,101037.56
2023-06-25T09:48:54.108Z,101038.50
2023-06-25T09:52:03.852Z,101032.69
2023-06-25T09:55:09.676Z,101031.78
2023-06-25T09:58:12.262Z,101025.78
2023-06-25T10:01:17.452Z,101027.78
2023-06-25T10:04:21.568Z,101013.44
2023-06-25T10:07:25.879Z,101022.66
2023-06-25T10:10:30.622Z,101012.16
2023-06-25T10:13:36.493Z,101009.00
2023-06-25T10:16:40.410Z,101011.72
2023-06-25T10:19:57.736Z,101003.25
2023-06-25T10:23:08.164Z,100995.84
2023-06-25T10:26:14.903Z,100995.63
2023-06-25T10:29:17.378Z,100990.22
2023-06-25T10:32:20.925Z,100992.13
2023-06-25T10:35:25.015Z,100984.13
2023-06-25T10:38:27.498Z,100976.97
2023-06-25T10:41:31.617Z,100976.66
2023-06-25T10:44:34.999Z,100973.38
2023-06-25T10:47:37.534Z,100968.22
2023-06-25T10:50:42.419Z,100979.53
2023-06-25T10:53:45.076Z,100974.38
2023-06-25T10:56:49.476Z,100972.69
2023-06-25T10:59:53.324Z,100967.09
2023-06-25T11:02:56.896Z,100971.66
2023-06-25T11:06:00.889Z,100964.81
2023-06-25T11:09:03.943Z,100967.44
2023-06-25T11:12:08.149Z,100966.28
2023-06-25T11:15:10.642Z,100954.75
2023-06-25T11:18:18.823Z,100957.00
2023-06-25T11:21:22.647Z,100960.56
2023-06-25T11:24:25.302Z,100948.88
2023-06-25T11:27:29.662Z,100951.34
2023-06-25T11:30:33.711Z,100942.81
2023-06-25T11:33:36.356Z,100935.41
2023-06-25T11:36:40.790Z,100930.81
2023-06-25T11:39:44.839Z,100926.28
2023-06-25T11:42:48.029Z,100924.59
2023-06-25T11:45:52.156Z,100915.63
2023-06-25T11:48:55.017Z,100922.16
2023-06-25T11:52:00.073Z,100918.75
2023-06-25T11:55:03.405Z,100913.22
2023-06-25T11:58:06.077Z,100911.09
2023-06-25T12:01:10.223Z,100908.63
2023-06-25T12:04:12.766Z,100914.06
2023-06-25T12:07:17.152Z,100901.47
2023-06-25T12:10:19.848Z,100899.59
2023-06-25T12:13:22.461Z,100903.88
2023-06-25T12:16:25.018Z,100898.19
2023-06-25T12:19:27.502Z,100901.91
2023-06-25T12:22:33.399Z,100901.06
2023-06-25T12:25:36.950Z,100899.22
2023-06-25T12:28:39.945Z,100888.63
2023-06-25T12:31:42.647Z,100878.50
2023-06-25T12:34:45.420Z,100889.75
2023-06-25T12:37:49.627Z,100884.25
2023-06-25T12:40:58.085Z,100872.56
2023-06-25T12:44:01.695Z,100879.06
2023-06-25T12:47:04.784Z,100873.06
2023-06-25T12:50:08.477Z,100878.16
2023-06-25T12:53:13.280Z,100877.13
2023-06-25T12:56:16.389Z,100862.72
2023-06-25T12:59:19.558Z,100873.13
2023-06-25T13:02:22.254Z,100872.34
2023-06-25T13:05:26.821Z,100879.47
2023-06-25T13:08:30.940Z,100871.59
2023-06-25T13:11:35.624Z,100867.03
2023-06-25T13:14:38.560Z,100873.25
2023-06-25T13:17:45.702Z,100873.78
2023-06-25T13:20:49.068Z,100871.59
2023-06-25T13:23:53.936Z,100871.94
2023-06-25T13:26:59.710Z,100867.03
2023-06-25T13:30:02.909Z,100869.75
2023-06-25T13:33:06.515Z,100862.81
2023-06-25T13:36:09.921Z,100858.47
2023-06-25T13:39:15.399Z,100861.22
2023-06-25T13:42:19.233Z,100856.88
2023-06-25T13:45:23.528Z,100857.78
2023-06-25T13:48:26.655Z,100857.50
2023-06-25T13:51:29.948Z,100866.78
2023-06-25T13:54:34.522Z,100849.03
2023-06-25T13:57:37.947Z,100852.94
2023-06-25T14:00:41.014Z,100840.66
2023-06-25T14:03:45.033Z,100841.88
2023-06-25T14:06:48.411Z,100836.16
2023-06-25T14:09:55.914Z,100832.13
2023-06-25T14:13:03.097Z,100834.91
2023-06-25T14:16:15.544Z,100829.34
2023-06-25T14:19:19.408Z,100828.44
2023-06-25T14:22:22.956Z,100829.56
2023-06-25T14:25:30.562Z,100821.16
2023-06-25T14:28:34.162Z,100819.47
2023-06-25T14:31:37.462Z,100822.75
2023-06-25T14:34:40.711Z,100822.38
2023-06-25T14:37:44.243Z,100821.00
2023-06-25T14:40:48.724Z,100815.56
2023-06-25T14:43:52.021Z,100814.34
2023-06-25T14:46:55.165Z,100807.22
2023-06-25T14:49:58.310Z,100811.06
2023-06-25T14:53:01.659Z,100806.06
2023-06-25T14:56:06.766Z,100812.56
2023-06-25T14:59:09.939Z,100801.81
2023-06-25T15:02:13.366Z,100802.16
2023-06-25T15:05:16.483Z,100810.13
2023-06-25T15:08:19.646Z,100811.75
2023-06-25T15:11:27.751Z,100806.63
2023-06-25T15:14:30.817Z,100808.34
2023-06-25T15:17:34.298Z,100803.47
2023-06-25T15:20:37.833Z,100797.69
2023-06-25T15:23:40.984Z,100792.91
2023-06-25T15:26:45.829Z,100790.03
2023-06-25T15:29:48.980Z,100781.00
2023-06-25T15:32:52.242Z,100776.22
2023-06-25T15:35:55.929Z,100780.09
2023-06-25T15:38:59.369Z,100774.84
2023-06-25T15:42:04.806Z,100767.63
2023-06-25T15:45:11.977Z,100772.19
2023-06-25T15:48:15.571Z,100762.72
2023-06-25T15:51:18.907Z,100765.78
2023-06-25T15:54:26.260Z,100764.97
2023-06-25T15:57:31.264Z,100765.00
2023-06-25T16:00:36.488Z,100764.34
2023-06-25T16:03:40.167Z,100757.38
2023-06-25T16:06:43.521Z,100759.09
2023-06-25T16:09:46.742Z,100756.06
2023-06-25T16:12:51.626Z,100747.94
2023-06-25T16:15:56.421Z,100740.13
2023-06-25T16:19:22.116Z,100748.75
2023-06-25T16:22:22.972Z,100732.00
2023-06-25T16:25:26.556Z,100733.53
2023-06-25T16:28:33.251Z,100732.88
2023-06-25T16:31:36.371Z,100736.28
2023-06-25T16:34:40.791Z,100733.72
2023-06-25T16:37:43.978Z,100734.91
2023-06-25T16:40:47.092Z,100738.69
2023-06-25T16:43:52.169Z,100728.06
2023-06-25T16:46:56.674Z,100731.56
2023-06-25T16:50:00.194Z,100736.97
2023-06-25T16:53:04.534Z,100742.06
2023-06-25T16:56:07.754Z,100734.81
2023-06-25T16:59:13.686Z,100731.38
2023-06-25T17:02:16.988Z,100734.91
2023-06-25T17:05:20.462Z,100726.91
2023-06-25T17:08:25.043Z,100730.59
2023-06-25T17:11:28.783Z,100726.16
2023-06-25T17:14:33.601Z,100725.06
2023-06-25T17:17:36.967Z,100725.25
2023-06-25T17:20:40.116Z,100724.81
2023-06-25T17:23:45.647Z,100722.72
2023-06-25T17:26:49.087Z,100723.25
2023-06-25T17:29:54.052Z,100723.59
2023-06-25T17:32:56.862Z,100714.44
2023-06-25T17:35:59.466Z,100719.03
2023-06-25T17:39:02.066Z,100717.31
2023-06-25T17:42:05.060Z,100717.63
2023-06-25T17:45:09.610Z,100717.38
2023-06-25T17:48:12.147Z,100709.91
2023-06-25T17:51:15.068Z,100718.69
2023-06-25T17:54:18.272Z,100714.81
2023-06-25T17:57:20.783Z,100715.50
2023-06-25T18:00:24.633Z,100719.59
2023-06-25T18:03:28.315Z,100714.19
2023-06-25T18:06:31.468Z,100716.97
2023-06-25T18:09:34.122Z,100715.94
2023-06-25T18:12:39.576Z,100720.38
2023-06-25T18:15:43.456Z,100720.91
2023-06-25T18:18:47.230Z,100726.19
2023-06-25T18:21:49.741Z,100717.19
2023-06-25T18:24:52.349Z,100717.88
2023-06-25T18:27:55.121Z,100711.22
2023-06-25T18:31:00.639Z,100705.22
2023-06-25T18:34:03.379Z,100711.59
2023-06-25T18:37:06.125Z,100712.03
2023-06-25T18:40:09.888Z,100705.03
2023-06-25T18:43:12.420Z,100705.59
2023-06-25T18:46:16.265Z,100702.69
2023-06-25T18:49:19.884Z,100700.06
2023-06-25T18:52:22.462Z,100703.81
2023-06-25T18:55:25.046Z,100695.19
2023-06-25T18:58:27.584Z,100688.94
2023-06-25T19:01:34.040Z,100683.59
2023-06-25T19:04:38.027Z,100678.31
2023-06-25T19:07:40.707Z,100678.28
2023-06-25T19:10:44.789Z,100677.47
2023-06-25T19:13:47.298Z,100675.34
2023-06-25T19:16:51.884Z,100671.06
2023-06-25T19:19:54.464Z,100665.34
2023-06-25T19:23:23.641Z,100667.41
2023-06-25T19:26:19.616Z,100662.19
2023-06-25T19:29:22.254Z,100655.66
2023-06-25T19:32:26.285Z,100658.41
2023-06-25T19:35:28.794Z,100663.44
2023-06-25T19:38:31.736Z,100663.09
2023-06-25T19:41:34.339Z,100666.56
2023-06-25T19:44:36.862Z,100665.59
2023-06-25T19:47:40.806Z,100658.28
2023-06-25T19:50:43.435Z,100650.66
2023-06-25T19:53:46.012Z,100647.28
2023-06-25T19:56:48.598Z,100638.84
2023-06-25T19:59:51.165Z,100637.41
2023-06-25T20:02:55.101Z,100627.66
2023-06-25T20:05:57.724Z,100633.56
2023-06-25T20:09:00.277Z,100621.69
2023-06-25T20:12:03.334Z,100622.41
2023-06-25T20:15:06.495Z,100609.13
2023-06-25T20:18:10.320Z,100596.81
2023-06-25T20:21:12.971Z,100585.56
2023-06-25T20:24:15.538Z,100561.16
